Time;durP1;ratioP1;P1;durP2;ratioP2;P2;SDS_P1;SDS_P2;PMS_P1;PMS_P2;Temp;Humidity;BMP_temperature;BMP_pressure;BME280_temperature;BME280_humidity;BME280_pressure;Samples;Min_cycle;Max_cycle;Signal;HPM_P1;HPM_P2
2022/10/02 00:00:24;;;;;;;;;;;;;;;21.65;64.46;99139.75;7314621;19;129028;-37
2022/10/02 00:02:49;;;;;;;;;;;;;;;21.68;64.62;99149.13;7314670;19;129202;-40
2022/10/02 00:05:17;;;;;;;;;;;;;;;21.65;64.57;99147.59;7314290;19;129609;-38
2022/10/02 00:08:01;;;;;;;;;;;;;;;21.68;65.08;99149.91;7314830;19;130118;-39
2022/10/02 00:10:33;;;;;;;;;;;;;;;21.64;64.54;99151.22;7312175;19;128886;-37
2022/10/02 00:13:03;;;;;;;;;;;;;;;21.67;64.58;99153.50;7309127;19;129484;-37
2022/10/02 00:15:30;;;;;;;;;;;;;;;21.69;64.47;99167.28;7315116;19;129558;-38
2022/10/02 00:17:58;;;;;;;;;;;;;;;21.63;64.64;99157.41;7315968;19;130312;-38
2022/10/02 00:20:29;;;;;;;;;;;;;;;21.64;65.15;99159.06;7314010;19;129092;-38
2022/10/02 00:22:54;;;;;;;;;;;;;;;21.69;64.63;99172.50;7313462;19;129176;-38
2022/10/02 00:25:20;;;;;;;;;;;;;;;21.66;64.93;99167.59;7314837;19;129644;-40
2022/10/02 00:27:58;;;;;;;;;;;;;;;21.67;65.01;99174.44;7313713;19;131119;-39
2022/10/02 00:30:23;;;;;;;;;;;;;;;21.67;64.77;99184.91;7314242;19;129020;-37
2022/10/02 00:32:48;;;;;;;;;;;;;;;21.66;64.64;99183.28;7310535;19;128932;-38
2022/10/02 00:35:13;;;;;;;;;;;;;;;21.69;64.95;99182.97;7313297;19;129044;-38
2022/10/02 00:37:41;;;;;;;;;;;;;;;21.71;64.93;99177.59;7314998;19;129656;-37
2022/10/02 00:40:06;;;;;;;;;;;;;;;21.68;64.50;99185.75;7313933;19;129210;-38
2022/10/02 00:42:35;;;;;;;;;;;;;;;21.69;64.94;99190.81;7313561;19;129685;-37
2022/10/02 00:45:20;;;;;;;;;;;;;;;21.69;65.03;99193.44;7313792;19;129291;-39
2022/10/02 00:47:53;;;;;;;;;;;;;;;21.68;64.31;99202.25;7313169;19;129700;-39
2022/10/02 00:50:29;;;;;;;;;;;;;;;21.66;64.88;99196.34;7314533;19;129314;-38
2022/10/02 00:52:57;;;;;;;;;;;;;;;21.69;65.04;99197.84;7311064;19;129317;-39
2022/10/02 00:55:31;;;;;;;;;;;;;;;21.66;64.68;99198.97;7313124;19;129086;-39
2022/10/02 00:57:57;;;;;;;;;;;;;;;21.66;64.84;99198.97;7312317;19;130012;-38
2022/10/02 01:00:22;;;;;;;;;;;;;;;21.66;64.45;99204.22;7315056;19;129171;-37
2022/10/02 01:03:05;;;;;;;;;;;;;;;21.65;64.79;99196.50;7313513;19;129083;-38
2022/10/02 01:05:33;;;;;;;;;;;;;;;21.55;64.67;99186.09;7313355;19;129370;-40
2022/10/02 01:07:59;;;;;;;;;;;;;;;21.60;64.81;99183.06;7312697;19;130895;-38
2022/10/02 01:10:25;;;;;;;;;;;;;;;21.69;65.33;99214.38;7313120;19;129250;-37
2022/10/02 01:12:51;;;;;;;;;;;;;;;21.67;64.43;99207.63;7308729;19;129392;-38
2022/10/02 01:15:17;;;;;;;;;;;;;;;21.65;64.84;99213.00;7313530;19;129117;-39
2022/10/02 01:17:44;;;;;;;;;;;;;;;21.69;64.91;99218.78;7312345;19;129929;-39
2022/10/02 01:20:18;;;;;;;;;;;;;;;21.57;65.28;99205.09;7312993;19;129597;-37
2022/10/02 01:22:58;;;;;;;;;;;;;;;21.64;64.54;99221.84;7311816;19;129300;-39
2022/10/02 01:25:23;;;;;;;;;;;;;;;21.62;64.39;99217.72;7312149;19;129545;-36
2022/10/02 01:27:49;;;;;;;;;;;;;;;21.68;64.79;99228.41;7312795;19;129361;-37
2022/10/02 01:30:16;;;;;;;;;;;;;;;21.68;64.36;99238.88;7313090;19;128884;-39
2022/10/02 01:32:58;;;;;;;;;;;;;;;21.67;64.49;99242.47;7310325;19;129229;-37
2022/10/02 01:35:25;;;;;;;;;;;;;;;21.65;64.42;99239.16;7312127;19;129151;-39
2022/10/02 01:37:52;;;;;;;;;;;;;;;21.67;64.82;99241.63;7312028;19;129707;-40
2022/10/02 01:40:25;;;;;;;;;;;;;;;21.69;64.73;99242.31;7311429;19;130053;-38
2022/10/02 01:42:51;;;;;;;;;;;;;;;21.68;65.04;99244.09;7310922;19;129418;-37
2022/10/02 01:45:16;;;;;;;;;;;;;;;21.69;64.97;99250.16;7311741;19;129276;-40
2022/10/02 01:47:41;;;;;;;;;;;;;;;21.65;64.46;99238.38;7312068;19;129445;-38
2022/10/02 01:50:30;;;;;;;;;;;;;;;21.58;65.21;99226.84;7311950;19;129411;-38
2022/10/02 01:52:55;;;;;;;;;;;;;;;21.68;65.22;99249.34;7310055;19;128697;-37
2022/10/02 01:55:26;;;;;;;;;;;;;;;21.66;64.82;99245.22;7311911;19;129183;-37
2022/10/02 01:58:00;;;;;;;;;;;;;;;21.68;65.04;99254.56;7311081;19;130227;-39
2022/10/02 02:00:35;;;;;;;;;;;;;;;21.70;64.47;99247.41;7311394;19;130607;-37
2022/10/02 02:03:03;;;;;;;;;;;;;;;21.66;64.92;99256.53;7310497;19;129140;-39
2022/10/02 02:05:44;;;;;;;;;;;;;;;21.67;65.16;99266.00;7311353;19;129749;-38
2022/10/02 02:08:32;;;;;;;;;;;;;;;21.68;64.83;99264.22;7310276;19;130351;-38
2022/10/02 02:11:24;;;;;;;;;;;;;;;21.68;64.49;99272.88;7307836;19;129522;-37
2022/10/02 02:13:49;;;;;;;;;;;;;;;21.64;65.12;99263.69;7308702;19;129372;-37
2022/10/02 02:16:37;;;;;;;;;;;;;;;21.64;65.28;99266.31;7310871;19;129045;-37
2022/10/02 02:19:02;;;;;;;;;;;;;;;21.67;64.88;99273.03;7313932;19;129197;-38
2022/10/02 02:21:29;;;;;;;;;;;;;;;21.55;64.56;99256.72;7317676;19;129374;-38
2022/10/02 02:23:56;;;;;;;;;;;;;;;21.56;65.29;99261.00;7316885;19;129334;-37
2022/10/02 02:26:23;;;;;;;;;;;;;;;21.56;64.50;99261.00;7318304;19;129150;-39
2022/10/02 02:28:51;;;;;;;;;;;;;;;21.69;64.73;99281.56;7317610;19;131099;-37
2022/10/02 02:31:19;;;;;;;;;;;;;;;21.68;64.67;99266.84;7317891;19;129425;-37
2022/10/02 02:33:47;;;;;;;;;;;;;;;21.68;65.25;99279.94;7314783;19;129251;-38
2022/10/02 02:36:15;;;;;;;;;;;;;;;21.67;65.18;99279.09;7317670;19;130016;-37
2022/10/02 02:38:51;;;;;;;;;;;;;;;21.66;65.19;99282.69;7316547;19;129638;-36
2022/10/02 02:41:21;;;;;;;;;;;;;;;21.66;65.26;99277.47;7318157;19;128916;-37
2022/10/02 02:44:01;;;;;;;;;;;;;;;21.63;64.72;99274.31;7315349;19;129292;-38
2022/10/02 02:46:26;;;;;;;;;;;;;;;21.65;64.71;99281.03;7317995;19;129013;-38
2022/10/02 02:48:55;;;;;;;;;;;;;;;21.66;65.33;99284.47;7317135;19;130069;-39
2022/10/02 02:51:25;;;;;;;;;;;;;;;21.66;64.39;99277.47;7316041;19;130380;-38
2022/10/02 02:54:11;;;;;;;;;;;;;;;21.65;64.93;99275.78;7316006;19;129582;-38
2022/10/02 02:56:37;;;;;;;;;;;;;;;21.65;65.18;99278.41;7314717;19;129111;-38
2022/10/02 02:59:12;;;;;;;;;;;;;;;21.72;64.66;99286.50;7316329;19;129091;-38
2022/10/02 03:01:38;;;;;;;;;;;;;;;21.58;64.32;99272.16;7316971;19;129214;-38
2022/10/02 03:04:04;;;;;;;;;;;;;;;21.65;64.91;99288.88;7315465;19;129667;-37
2022/10/02 03:06:36;;;;;;;;;;;;;;;21.66;64.78;99290.53;7316806;19;129627;-37
2022/10/02 03:09:02;;;;;;;;;;;;;;;21.57;65.29;99275.72;7316370;19;129227;-38
2022/10/02 03:11:46;;;;;;;;;;;;;;;21.68;64.98;99290.38;7315729;19;130972;-39
2022/10/02 03:14:20;;;;;;;;;;;;;;;21.70;64.56;99296.31;7314208;19;129172;-41
2022/10/02 03:16:45;;;;;;;;;;;;;;;21.57;65.21;99286.19;7316968;19;129419;-38
2022/10/02 03:19:26;;;;;;;;;;;;;;;21.70;64.79;99299.72;7317310;19;129330;-39
2022/10/02 03:22:11;;;;;;;;;;;;;;;21.68;64.76;99304.28;7314231;19;129191;-39
2022/10/02 03:24:55;;;;;;;;;;;;;;;21.64;64.66;99305.56;7313693;19;129560;-36
2022/10/02 03:27:39;;;;;;;;;;;;;;;21.66;64.34;99303.63;7315931;19;129080;-37
2022/10/02 03:30:06;;;;;;;;;;;;;;;21.69;64.44;99305.94;7314160;19;129408;-39
2022/10/02 03:32:32;;;;;;;;;;;;;;;21.68;64.67;99298.25;7312524;19;130925;-37
2022/10/02 03:34:58;;;;;;;;;;;;;;;21.64;64.69;99300.31;7316283;19;129392;-39
2022/10/02 03:37:24;;;;;;;;;;;;;;;21.68;64.76;99295.63;7316363;19;129062;-39
2022/10/02 03:39:51;;;;;;;;;;;;;;;21.66;64.46;99301.00;7315073;19;129262;-39
2022/10/02 03:42:20;;;;;;;;;;;;;;;21.68;64.76;99293.81;7315973;19;129315;-38
2022/10/02 03:44:45;;;;;;;;;;;;;;;21.65;65.18;99296.72;7313600;19;128934;-39
2022/10/02 03:47:10;;;;;;;;;;;;;;;21.65;64.51;99301.97;7315066;19;129561;-37
2022/10/02 03:49:36;;;;;;;;;;;;;;;21.63;64.78;99303.94;7314191;19;129555;-39
2022/10/02 03:52:01;;;;;;;;;;;;;;;21.68;65.21;99306.91;7313335;19;129055;-38
2022/10/02 03:54:30;;;;;;;;;;;;;;;21.69;65.25;99307.72;7313375;19;128841;-38
2022/10/02 03:56:56;;;;;;;;;;;;;;;21.67;64.81;99304.44;7314824;19;130811;-39
2022/10/02 03:59:37;;;;;;;;;;;;;;;21.66;65.17;99311.47;7314331;19;129407;-37
2022/10/02 04:02:05;;;;;;;;;;;;;;;21.66;65.11;99303.63;7314131;19;129275;-38
2022/10/02 04:04:36;;;;;;;;;;;;;;;21.68;65.26;99308.72;7313196;19;129174;-39
2022/10/02 04:07:03;;;;;;;;;;;;;;;21.65;64.53;99307.19;7315151;19;129031;-38
2022/10/02 04:09:33;;;;;;;;;;;;;;;21.63;65.35;99309.16;7312377;19;129649;-39
2022/10/02 04:12:02;;;;;;;;;;;;;;;21.66;64.51;99314.09;7313338;19;129118;-38
2022/10/02 04:14:47;;;;;;;;;;;;;;;21.65;65.00;99312.44;7310844;19;130150;-37
2022/10/02 04:17:26;;;;;;;;;;;;;;;21.71;64.72;99324.94;7311499;19;130405;-39
2022/10/02 04:19:58;;;;;;;;;;;;;;;21.73;65.09;99324.78;7314675;19;129865;-37
2022/10/02 04:22:41;;;;;;;;;;;;;;;21.69;64.82;99316.41;7315189;19;129064;-37
2022/10/02 04:25:39;;;;;;;;;;;;;;;21.70;64.86;99331.13;7314634;19;129171;-38
2022/10/02 04:28:06;;;;;;;;;;;;;;;21.68;64.75;99319.97;7311103;19;129765;-37
2022/10/02 04:30:32;;;;;;;;;;;;;;;21.67;64.93;99320.97;7314387;19;130034;-37
2022/10/02 04:33:05;;;;;;;;;;;;;;;21.65;65.29;99327.31;7312373;19;128950;-38
2022/10/02 04:35:42;;;;;;;;;;;;;;;21.65;64.76;99322.88;7313525;19;128829;-37
2022/10/02 04:38:10;;;;;;;;;;;;;;;21.68;64.37;99327.81;7315167;19;129250;-37
2022/10/02 04:41:02;;;;;;;;;;;;;;;21.70;64.79;99320.66;7313352;19;130553;-39
2022/10/02 04:43:28;;;;;;;;;;;;;;;21.68;65.04;99319.97;7313088;19;129175;-38
2022/10/02 04:46:11;;;;;;;;;;;;;;;21.68;65.04;99327.81;7314032;19;129318;-40
2022/10/02 04:48:55;;;;;;;;;;;;;;;21.69;64.97;99324.25;7313715;19;129399;-38
2022/10/02 04:51:39;;;;;;;;;;;;;;;21.68;64.39;99330.44;7312860;19;130450;-36
2022/10/02 04:54:07;;;;;;;;;;;;;;;21.69;65.04;99329.50;7311633;19;128884;-37
2022/10/02 04:56:35;;;;;;;;;;;;;;;21.57;64.91;99314.94;7312544;19;130408;-38
2022/10/02 04:59:03;;;;;;;;;;;;;;;21.66;64.78;99334.19;7313062;19;129492;-37
2022/10/02 05:01:45;;;;;;;;;;;;;;;21.70;65.04;99333.75;7314022;19;130305;-39
2022/10/02 05:04:28;;;;;;;;;;;;;;;21.64;64.75;99328.28;7311834;19;129727;-37
2022/10/02 05:06:54;;;;;;;;;;;;;;;21.69;64.38;99333.88;7313907;19;128818;-40
2022/10/02 05:09:46;;;;;;;;;;;;;;;21.65;65.36;99328.13;7312158;19;129890;-38
2022/10/02 05:12:14;;;;;;;;;;;;;;;21.69;64.58;99328.66;7312070;19;129198;-38
2022/10/02 05:15:02;;;;;;;;;;;;;;;21.69;64.90;99324.25;7310902;19;130487;-36
2022/10/02 05:17:27;;;;;;;;;;;;;;;21.69;64.65;99326.88;7313517;19;129414;-39
2022/10/02 05:20:11;;;;;;;;;;;;;;;21.70;65.14;99330.31;7312282;19;129405;-39
2022/10/02 05:22:45;;;;;;;;;;;;;;;21.70;64.71;99336.34;7304817;19;129864;-40
2022/10/02 05:25:14;;;;;;;;;;;;;;;21.68;65.09;99338.28;7309483;19;129958;-39
2022/10/02 05:28:05;;;;;;;;;;;;;;;21.60;64.83;99327.72;7311975;19;129952;-37
2022/10/02 05:30:38;;;;;;;;;;;;;;;21.68;64.92;99332.25;7311337;19;130004;-38
2022/10/02 05:33:10;;;;;;;;;;;;;;;21.59;64.39;99320.03;7307805;19;129293;-37
2022/10/02 05:35:44;;;;;;;;;;;;;;;21.71;64.84;99335.41;7311050;19;129228;-37
2022/10/02 05:38:21;;;;;;;;;;;;;;;21.57;64.45;99314.94;7309394;19;129531;-39
2022/10/02 05:41:05;;;;;;;;;;;;;;;21.69;65.10;99339.97;7308683;19;131367;-37
2022/10/02 05:43:33;;;;;;;;;;;;;;;21.75;64.68;99339.34;7308693;19;129662;-38
2022/10/02 05:46:02;;;;;;;;;;;;;;;21.71;64.74;99338.03;7307513;19;129877;-39
2022/10/02 05:48:42;;;;;;;;;;;;;;;21.69;64.62;99345.19;7308926;19;129109;-38
2022/10/02 05:51:25;;;;;;;;;;;;;;;21.70;64.72;99346.81;7308917;19;130163;-39
2022/10/02 05:53:57;;;;;;;;;;;;;;;21.71;64.61;99355.50;7309590;19;129210;-38
2022/10/02 05:56:28;;;;;;;;;;;;;;;21.69;64.63;99355.66;7317023;19;129091;-37
2022/10/02 05:58:53;;;;;;;;;;;;;;;21.67;64.53;99352.34;7316806;19;129860;-40
2022/10/02 06:01:22;;;;;;;;;;;;;;;21.70;64.64;99357.28;7318755;19;130495;-37
2022/10/02 06:03:54;;;;;;;;;;;;;;;21.67;64.51;99341.06;7313159;19;129748;-40
2022/10/02 06:06:20;;;;;;;;;;;;;;;21.73;65.27;99350.94;7317507;19;129705;-39
2022/10/02 06:08:49;;;;;;;;;;;;;;;21.72;64.87;99342.28;7316370;19;129719;-40
2022/10/02 06:11:27;;;;;;;;;;;;;;;21.58;64.60;99323.63;7318472;19;130679;-39
2022/10/02 06:13:58;;;;;;;;;;;;;;;21.72;65.20;99347.50;7313912;19;130332;-40
2022/10/02 06:16:42;;;;;;;;;;;;;;;21.68;64.66;99348.75;7316170;19;129482;-37
2022/10/02 06:19:13;;;;;;;;;;;;;;;21.68;64.81;99338.28;7316624;19;129197;-36
2022/10/02 06:21:45;;;;;;;;;;;;;;;21.66;65.02;99342.03;7316460;19;129005;-38
2022/10/02 06:24:15;;;;;;;;;;;;;;;21.69;64.99;99347.81;7315503;19;130369;-39
2022/10/02 06:26:54;;;;;;;;;;;;;;;21.70;65.08;99343.41;7317473;19;129444;-39
2022/10/02 06:29:25;;;;;;;;;;;;;;;21.65;64.61;99333.34;7317599;19;129035;-37
2022/10/02 06:32:02;;;;;;;;;;;;;;;21.70;64.97;99349.44;7316123;19;129174;-39
2022/10/02 06:34:27;;;;;;;;;;;;;;;21.70;64.61;99352.06;7313908;19;130828;-37
2022/10/02 06:37:01;;;;;;;;;;;;;;;21.69;64.84;99353.03;7316409;19;129566;-39
2022/10/02 06:39:41;;;;;;;;;;;;;;;21.55;64.85;99331.78;7315411;19;129496;-38
2022/10/02 06:42:14;;;;;;;;;;;;;;;21.68;64.71;99353.19;7317027;19;129402;-40
2022/10/02 06:44:58;;;;;;;;;;;;;;;21.73;64.65;99356.19;7314476;19;129318;-37
2022/10/02 06:47:52;;;;;;;;;;;;;;;21.67;65.15;99348.91;7316151;19;129017;-37
2022/10/02 06:50:18;;;;;;;;;;;;;;;21.58;64.39;99324.47;7313877;19;129263;-38
2022/10/02 06:52:52;;;;;;;;;;;;;;;21.69;65.13;99347.81;7311571;19;130249;-37
2022/10/02 06:55:17;;;;;;;;;;;;;;;21.67;64.96;99351.53;7314831;19;129185;-38
2022/10/02 06:57:47;;;;;;;;;;;;;;;21.70;64.76;99357.28;7315796;19;129501;-37
2022/10/02 07:00:15;;;;;;;;;;;;;;;21.69;64.62;99347.81;7317825;19;128994;-38
2022/10/02 07:02:59;;;;;;;;;;;;;;;21.70;64.64;99343.41;7313549;19;129812;-37
2022/10/02 07:05:30;;;;;;;;;;;;;;;21.70;64.76;99341.59;7315118;19;129706;-37
2022/10/02 07:08:18;;;;;;;;;;;;;;;21.69;64.75;99339.13;7315949;19;129093;-39
2022/10/02 07:10:54;;;;;;;;;;;;;;;21.69;64.71;99339.97;7314569;19;129039;-38
2022/10/02 07:13:34;;;;;;;;;;;;;;;21.69;64.39;99344.34;7312747;19;129993;-38
2022/10/02 07:16:07;;;;;;;;;;;;;;;21.62;64.78;99328.41;7313091;19;130180;-40
2022/10/02 07:18:48;;;;;;;;;;;;;;;21.68;64.71;99343.53;7315672;19;129781;-38
2022/10/02 07:21:19;;;;;;;;;;;;;;;21.57;64.43;99330.66;7313972;19;129090;-39
2022/10/02 07:23:50;;;;;;;;;;;;;;;21.66;64.91;99344.66;7314652;19;129920;-37
2022/10/02 07:26:42;;;;;;;;;;;;;;;21.66;65.11;99348.09;7314865;19;129645;-39
2022/10/02 07:29:07;;;;;;;;;;;;;;;21.69;64.88;99345.19;7312405;19;129022;-37
2022/10/02 07:31:51;;;;;;;;;;;;;;;21.67;64.89;99346.28;7313292;19;129341;-38
2022/10/02 07:34:36;;;;;;;;;;;;;;;21.65;65.08;99349.06;7312210;19;129456;-38
2022/10/02 07:37:04;;;;;;;;;;;;;;;21.66;64.61;99342.03;7310712;19;130137;-40
2022/10/02 07:39:38;;;;;;;;;;;;;;;21.66;64.96;99350.72;7314652;19;128885;-38
2022/10/02 07:42:22;;;;;;;;;;;;;;;21.68;64.87;99348.75;7315050;19;129753;-37
2022/10/02 07:44:47;;;;;;;;;;;;;;;21.67;64.56;99344.50;7312203;19;129651;-37
2022/10/02 07:47:27;;;;;;;;;;;;;;;21.67;65.09;99344.50;7314782;19;129267;-39
2022/10/02 07:50:12;;;;;;;;;;;;;;;21.68;64.82;99346.13;7313837;19;129123;-38
2022/10/02 07:52:43;;;;;;;;;;;;;;;21.66;64.64;99348.09;7312129;19;129167;-39
2022/10/02 07:55:14;;;;;;;;;;;;;;;21.68;65.21;99348.75;7314289;19;129643;-39
2022/10/02 07:57:44;;;;;;;;;;;;;;;21.70;65.12;99340.78;7311951;19;131173;-40
2022/10/02 08:00:15;;;;;;;;;;;;;;;21.63;65.23;99330.09;7314901;19;129461;-39
2022/10/02 08:02:52;;;;;;;;;;;;;;;21.69;65.01;99333.88;7312381;19;130000;-40
2022/10/02 08:05:20;;;;;;;;;;;;;;;21.70;64.52;99341.59;7313556;19;130356;-37
2022/10/02 08:07:47;;;;;;;;;;;;;;;21.69;64.97;99345.19;7313056;19;129608;-38
2022/10/02 08:10:14;;;;;;;;;;;;;;;21.69;64.91;99345.19;7314755;19;129048;-38
2022/10/02 08:12:42;;;;;;;;;;;;;;;21.65;65.16;99351.66;7312242;19;129420;-40
2022/10/02 08:15:14;;;;;;;;;;;;;;;21.63;65.11;99340.56;7312653;19;129554;-37
2022/10/02 08:17:54;;;;;;;;;;;;;;;21.66;65.04;99350.72;7311614;19;130455;-39
2022/10/02 08:20:26;;;;;;;;;;;;;;;21.64;65.02;99344.81;7312140;19;129062;-40
2022/10/02 08:22:58;;;;;;;;;;;;;;;21.59;65.26;99335.72;7311996;19;128766;-39
2022/10/02 08:25:24;;;;;;;;;;;;;;;21.70;64.82;99352.06;7314207;19;129563;-38
2022/10/02 08:28:10;;;;;;;;;;;;;;;21.71;64.97;99353.72;7310534;19;129511;-40
2022/10/02 08:30:36;;;;;;;;;;;;;;;21.68;64.64;99342.72;7313006;19;129470;-39
2022/10/02 08:33:06;;;;;;;;;;;;;;;21.68;64.83;99342.72;7310402;19;129227;-37
2022/10/02 08:35:39;;;;;;;;;;;;;;;21.65;65.18;99341.19;7313787;19;129125;-38
2022/10/02 08:38:30;;;;;;;;;;;;;;;21.66;64.99;99342.03;7310020;19;130320;-39
2022/10/02 08:41:10;;;;;;;;;;;;;;;21.65;65.08;99330.75;7312736;19;129592;-38
2022/10/02 08:43:38;;;;;;;;;;;;;;;21.68;65.06;99337.50;7311008;19;129203;-37
2022/10/02 08:46:12;;;;;;;;;;;;;;;21.66;64.67;99332.41;7313787;19;130653;-37
2022/10/02 08:48:57;;;;;;;;;;;;;;;21.69;64.75;99328.66;7310971;19;129600;-39
2022/10/02 08:51:43;;;;;;;;;;;;;;;21.71;65.12;99337.19;7311680;19;129329;-39
2022/10/02 08:54:11;;;;;;;;;;;;;;;21.64;64.83;99326.50;7309502;19;129712;-38
2022/10/02 08:56:59;;;;;;;;;;;;;;;21.69;64.63;99334.72;7311164;19;131201;-37
2022/10/02 08:59:25;;;;;;;;;;;;;;;21.71;64.42;99327.56;7309304;19;129453;-39
2022/10/02 09:02:08;;;;;;;;;;;;;;;21.71;64.65;99332.78;7310361;19;128966;-39
2022/10/02 09:04:53;;;;;;;;;;;;;;;21.68;65.23;99342.72;7308212;19;129049;-39
2022/10/02 09:07:21;;;;;;;;;;;;;;;21.69;64.70;99339.97;7311009;19;130208;-37
2022/10/02 09:09:52;;;;;;;;;;;;;;;21.71;64.46;99335.41;7311016;19;129532;-38
2022/10/02 09:12:34;;;;;;;;;;;;;;;21.69;64.67;99329.50;7310958;19;129276;-39
2022/10/02 09:15:25;;;;;;;;;;;;;;;21.59;65.23;99323.50;7310335;19;128935;-38
2022/10/02 09:18:09;;;;;;;;;;;;;;;21.68;64.63;99332.25;7309620;19;129706;-40
2022/10/02 09:20:34;;;;;;;;;;;;;;;21.68;65.18;99329.63;7311085;19;129416;-38
2022/10/02 09:23:15;;;;;;;;;;;;;;;21.66;64.78;99329.78;7309992;19;129144;-38
2022/10/02 09:25:52;;;;;;;;;;;;;;;21.66;64.85;99319.31;7310080;19;129419;-38
2022/10/02 09:28:36;;;;;;;;;;;;;;;21.63;64.85;99324.84;7316079;19;129216;-37
2022/10/02 09:31:21;;;;;;;;;;;;;;;21.71;64.96;99326.72;7319451;19;129879;-39
2022/10/02 09:34:02;;;;;;;;;;;;;;;21.72;64.92;99312.66;7316805;19;129077;-37
2022/10/02 09:36:40;;;;;;;;;;;;;;;21.73;64.53;99316.94;7319317;19;128954;-38
2022/10/02 09:39:35;;;;;;;;;;;;;;;21.69;64.29;99313.78;7318356;19;130133;-39
2022/10/02 09:42:00;;;;;;;;;;;;;;;21.61;64.99;99300.63;7314769;19;130387;-39
2022/10/02 09:44:38;;;;;;;;;;;;;;;21.65;65.37;99306.38;7316514;19;129041;-38
2022/10/02 09:47:22;;;;;;;;;;;;;;;21.69;64.51;99300.72;7317256;19;128934;-38
2022/10/02 09:50:06;;;;;;;;;;;;;;;21.68;65.12;99306.91;7318102;19;129020;-40
2022/10/02 09:52:50;;;;;;;;;;;;;;;21.70;64.67;99298.94;7317624;19;129820;-38
2022/10/02 09:55:24;;;;;;;;;;;;;;;21.66;65.07;99293.16;7319229;19;128879;-39
2022/10/02 09:57:53;;;;;;;;;;;;;;;21.67;65.27;99288.72;7318140;19;131942;-37
2022/10/02 10:00:37;;;;;;;;;;;;;;;21.68;65.18;99290.38;7318256;19;129808;-40
2022/10/02 10:03:14;;;;;;;;;;;;;;;21.68;64.59;99290.38;7315280;19;129976;-39
2022/10/02 10:05:39;;;;;;;;;;;;;;;21.69;64.46;99292.03;7318136;19;128944;-38
2022/10/02 10:08:23;;;;;;;;;;;;;;;21.57;65.03;99270.47;7317465;19;128981;-40
2022/10/02 10:10:59;;;;;;;;;;;;;;;21.63;65.32;99275.16;7317815;19;129270;-40
2022/10/02 10:13:44;;;;;;;;;;;;;;;21.69;65.26;99282.41;7314860;19;129932;-39
2022/10/02 10:16:21;;;;;;;;;;;;;;;21.70;65.21;99268.31;7315005;19;128976;-39
2022/10/02 10:19:01;;;;;;;;;;;;;;;21.71;65.19;99284.84;7317466;19;128796;-39
2022/10/02 10:21:36;;;;;;;;;;;;;;;21.65;64.77;99275.00;7317481;19;129545;-41
2022/10/02 10:24:08;;;;;;;;;;;;;;;21.69;64.99;99278.94;7313592;19;130191;-37
2022/10/02 10:26:42;;;;;;;;;;;;;;;21.62;64.95;99265.63;7317089;19;129023;-39
2022/10/02 10:29:21;;;;;;;;;;;;;;;21.69;65.08;99271.09;7317014;19;129096;-38
2022/10/02 10:31:49;;;;;;;;;;;;;;;21.68;64.72;99280.72;7315022;19;129524;-37
2022/10/02 10:34:44;;;;;;;;;;;;;;;21.69;64.34;99271.09;7315511;19;129774;-37
2022/10/02 10:40:19;;;;;;;;;;;;;;;21.68;64.94;99274.69;7315248;19;129421;-38
2022/10/02 10:42:48;;;;;;;;;;;;;;;21.72;64.88;99276.84;7315900;19;130399;-36
2022/10/02 10:45:22;;;;;;;;;;;;;;;21.72;65.36;99270.78;7317745;19;130849;-39
2022/10/02 10:48:05;;;;;;;;;;;;;;;21.66;65.32;99277.47;7317719;19;129137;-40
2022/10/02 10:50:37;;;;;;;;;;;;;;;21.64;65.21;99274.16;7316921;19;129327;-39
2022/10/02 10:53:11;;;;;;;;;;;;;;;21.66;64.50;99267.00;7314521;19;129623;-38
2022/10/02 10:55:39;;;;;;;;;;;;;;;21.68;64.80;99278.13;7316660;19;129202;-38
2022/10/02 10:58:13;;;;;;;;;;;;;;;21.55;65.32;99264.56;7317736;19;129277;-37
2022/10/02 11:00:46;;;;;;;;;;;;;;;21.68;64.67;99277.31;7315873;19;129080;-37
2022/10/02 11:03:38;;;;;;;;;;;;;;;21.66;65.17;99282.69;7316753;19;131267;-38
2022/10/02 11:06:17;;;;;;;;;;;;;;;21.66;65.01;99269.63;7315959;19;129415;-37
2022/10/02 11:09:06;;;;;;;;;;;;;;;21.69;64.45;99274.53;7315387;19;129198;-39
2022/10/02 11:11:31;;;;;;;;;;;;;;;21.71;65.50;99270.00;7316706;19;129217;-38
2022/10/02 11:14:04;;;;;;;;;;;;;;;21.68;64.92;99259.00;7313753;19;130272;-37
2022/10/02 11:16:29;;;;;;;;;;;;;;;21.67;65.22;99273.88;7315949;19;130430;-40
2022/10/02 11:19:22;;;;;;;;;;;;;;;21.70;65.16;99273.56;7314733;19;129355;-39
2022/10/02 11:21:50;;;;;;;;;;;;;;;21.68;65.05;99269.47;7315304;19;129723;-38
2022/10/02 11:24:31;;;;;;;;;;;;;;;21.69;65.44;99269.31;7314466;19;130210;-37
2022/10/02 11:26:59;;;;;;;;;;;;;;;21.68;65.09;99265.03;7316136;19;129361;-38
2022/10/02 11:29:29;;;;;;;;;;;;;;;21.67;64.73;99259.94;7316965;19;129817;-37
2022/10/02 11:32:13;;;;;;;;;;;;;;;21.57;65.12;99246.94;7314456;19;129093;-39
2022/10/02 11:34:47;;;;;;;;;;;;;;;21.68;64.65;99262.41;7312989;19;129364;-37
2022/10/02 11:37:12;;;;;;;;;;;;;;;21.69;65.17;99253.63;7314390;19;129364;-37
2022/10/02 11:39:53;;;;;;;;;;;;;;;21.66;65.33;99261.75;7314913;19;129089;-37
2022/10/02 11:42:36;;;;;;;;;;;;;;;21.65;65.46;99260.09;7314955;19;129148;-39
2022/10/02 11:45:13;;;;;;;;;;;;;;;21.59;64.64;99246.78;7315842;19;130230;-37
2022/10/02 11:47:39;;;;;;;;;;;;;;;21.66;65.44;99263.56;7314078;19;129082;-38
2022/10/02 11:50:04;;;;;;;;;;;;;;;21.59;64.90;99247.63;7314174;19;129950;-38
2022/10/02 11:52:40;;;;;;;;;;;;;;;21.66;64.76;99256.53;7313771;19;129124;-38
2022/10/02 11:55:05;;;;;;;;;;;;;;;21.69;65.33;99263.25;7314340;19;129351;-38
2022/10/02 11:57:39;;;;;;;;;;;;;;;21.66;65.44;99255.69;7316473;19;131313;-39
2022/10/02 12:00:12;;;;;;;;;;;;;;;21.66;65.20;99256.53;7314865;19;129866;-38
2022/10/02 12:02:43;;;;;;;;;;;;;;;21.66;64.86;99256.53;7312603;19;130701;-38
2022/10/02 12:05:08;;;;;;;;;;;;;;;21.69;64.69;99264.06;7313460;19;129299;-37
2022/10/02 12:07:40;;;;;;;;;;;;;;;21.70;64.45;99262.28;7313172;19;129220;-40
2022/10/02 12:10:24;;;;;;;;;;;;;;;21.68;64.96;99257.19;7314086;19;129229;-38
2022/10/02 12:13:09;;;;;;;;;;;;;;;21.68;64.66;99249.34;7313205;19;129519;-39
2022/10/02 12:15:34;;;;;;;;;;;;;;;21.68;65.45;99254.56;7313524;19;131101;-39
2022/10/02 12:17:59;;;;;;;;;;;;;;;21.65;64.73;99254.88;7312618;19;129401;-37
2022/10/02 12:29:25;;;;;;;;;;;;;;;21.71;65.25;99256.91;7314078;19;129918;-39
2022/10/02 12:32:11;;;;;;;;;;;;;;;21.69;65.18;99253.63;7312633;19;129535;-39
2022/10/02 12:34:37;;;;;;;;;;;;;;;21.68;65.35;99249.34;7311284;19;129007;-39
2022/10/02 12:37:05;;;;;;;;;;;;;;;21.67;65.26;99237.22;7310768;19;130298;-38
2022/10/02 12:39:50;;;;;;;;;;;;;;;21.66;64.76;99238.22;7315777;19;129693;-37
2022/10/02 12:42:15;;;;;;;;;;;;;;;21.64;65.22;99237.53;7312399;19;129246;-39
2022/10/02 12:44:50;;;;;;;;;;;;;;;21.68;64.69;99241.47;7309592;19;128963;-39
2022/10/02 12:47:18;;;;;;;;;;;;;;;21.66;64.86;99250.47;7311061;19;129624;-39
2022/10/02 12:49:55;;;;;;;;;;;;;;;21.65;65.17;99248.84;7308408;19;129375;-39
2022/10/02 12:52:33;;;;;;;;;;;;;;;21.65;65.34;99244.41;7308634;19;129405;-38
2022/10/02 12:55:01;;;;;;;;;;;;;;;21.69;64.96;99251.00;7306653;19;129212;-37
2022/10/02 13:00:15;;;;;;;;;;;;;;;21.66;64.75;99232.97;7312249;19;129044;-37
2022/10/02 13:02:56;;;;;;;;;;;;;;;21.71;65.06;99217.66;7311251;19;130034;-39
2022/10/02 13:05:35;;;;;;;;;;;;;;;21.71;64.69;99222.06;7311694;19;129188;-38
2022/10/02 13:08:04;;;;;;;;;;;;;;;21.69;64.86;99218.78;7312039;19;129515;-38
2022/10/02 13:10:34;;;;;;;;;;;;;;;21.68;64.83;99217.13;7313200;19;130464;-38
2022/10/02 13:13:08;;;;;;;;;;;;;;;21.65;65.31;99218.25;7310716;19;129256;-38
2022/10/02 13:15:41;;;;;;;;;;;;;;;21.69;64.75;99224.84;7311823;19;129773;-39
2022/10/02 13:18:27;;;;;;;;;;;;;;;21.68;64.79;99217.94;7309722;19;130245;-38
2022/10/02 13:20:55;;;;;;;;;;;;;;;21.59;65.66;99208.38;7309518;19;130814;-39
2022/10/02 13:23:29;;;;;;;;;;;;;;;21.70;64.78;99220.44;7306735;19;131611;-38